Nearby METAR Reports

 

KLEX - Lexington, Kentucky, USA
Distance from station: WNW 7mi, 11km
Updated: Tue, 11-Dec-2018 8:54pm EST
Clear
Clear
 Wind from SSW
Wind: SSW 12 mph , 19 km/h
Temperature: 36°F , 2°C
Wind Chill: 28°F , -2°C
Dew Point: 21°F , -6°C
Humidity: 56%
Barometer: 30.16 inHg , 1021.3 hPa
Clouds: Clear
Visibility: 10 miles , 16 km
2018/12/12 01:54 KLEX 120154Z 21010KT 10SM CLR 02/M06 A3016 RMK AO2 SLP222 T00171061
KFFT - Frankfort, Kentucky, USA
Distance from station: WNW 26mi, 42km
Updated: Tue, 11-Dec-2018 8:53pm EST
Clear
Clear
 Wind from SW
Wind: SW 9 mph , 15 km/h
Temperature: 36°F , 2°C
Wind Chill: 29°F , -2°C
Dew Point: 21°F , -6°C
Humidity: 56%
Barometer: 30.15 inHg , 1021 hPa
Clouds: Clear
Visibility: 10 miles , 16 km
2018/12/12 01:53 KFFT 120153Z AUTO 22008KT 10SM CLR 02/M06 A3015 RMK AO2 SLP217 T00171056
 
KIOB - Mount Sterling, Kentucky, USA
Distance from station: E 27mi, 44km
Updated: Tue, 11-Dec-2018 9:35pm EST
Clear
Clear
 Wind from SW
Wind: SW 10 mph , 17 km/h
Temperature: 34°F , 1°C
Wind Chill: 26°F , -3°C
Dew Point: 21°F , -6°C
Humidity: 60%
Barometer: 30.18 inHg , 1022 hPa
Clouds: Clear
Visibility: 10 miles , 16 km
2018/12/12 02:35 KIOB 120235Z AUTO 23009KT 10SM CLR 01/M06 A3018 RMK AO2
KDVK - Danville, Kentucky, USA
Distance from station: SSW 33mi, 53km
Updated: Tue, 11-Dec-2018 9:35pm EST
Clear
Clear
 Wind from SSW
Wind: SSW 7 mph , 11 km/h
Temperature: 32°F , 0°C
Wind Chill: 25°F , -4°C
Dew Point: 21°F , -6°C
Humidity: 64%
Barometer: 30.18 inHg , 1022 hPa
Clouds: Clear
Visibility: 10 miles , 16 km
2018/12/12 02:35 KDVK 120235Z AUTO 21006KT 10SM CLR 00/M06 A3018 RMK AO2